sensor_id;sensor_type;location;lat;lon;timestamp;pressure;altitude;pressure_sealevel;temperature;humidity
25658;BME280;13517;59.320;18.042;2024-01-25T00:02:03;99113.78;;;-0.14;100.00
25658;BME280;13517;59.320;18.042;2024-01-25T00:04:28;99152.53;;;0.09;100.00
25658;BME280;13517;59.320;18.042;2024-01-25T00:06:54;99192.72;;;0.21;100.00
25658;BME280;13517;59.320;18.042;2024-01-25T00:09:19;99190.44;;;0.13;100.00
25658;BME280;13517;59.320;18.042;2024-01-25T00:11:44;99148.22;;;-0.12;100.00
25658;BME280;13517;59.320;18.042;2024-01-25T00:14:10;99196.47;;;0.17;100.00
25658;BME280;13517;59.320;18.042;2024-01-25T00:16:35;99145.69;;;-0.16;100.00
25658;BME280;13517;59.320;18.042;2024-01-25T00:19:00;99222.00;;;0.19;100.00
25658;BME280;13517;59.320;18.042;2024-01-25T00:21:26;99154.09;;;-0.25;100.00
25658;BME280;13517;59.320;18.042;2024-01-25T00:23:51;99147.06;;;-0.26;100.00
25658;BME280;13517;59.320;18.042;2024-01-25T00:26:17;99232.91;;;0.13;100.00
25658;BME280;13517;59.320;18.042;2024-01-25T00:28:42;99218.03;;;0.09;100.00
25658;BME280;13517;59.320;18.042;2024-01-25T00:31:07;99302.50;;;0.40;100.00
25658;BME280;13517;59.320;18.042;2024-01-25T00:33:33;99277.50;;;0.25;100.00
25658;BME280;13517;59.320;18.042;2024-01-25T00:35:58;99252.25;;;-0.04;100.00
25658;BME280;13517;59.320;18.042;2024-01-25T00:38:24;99293.50;;;0.24;100.00
25658;BME280;13517;59.320;18.042;2024-01-25T00:40:52;99257.31;;;0.02;100.00
25658;BME280;13517;59.320;18.042;2024-01-25T00:43:17;99302.41;;;0.23;100.00
25658;BME280;13517;59.320;18.042;2024-01-25T00:45:43;99254.72;;;-0.20;100.00
25658;BME280;13517;59.320;18.042;2024-01-25T00:48:09;99335.31;;;0.39;100.00
25658;BME280;13517;59.320;18.042;2024-01-25T00:50:35;99349.66;;;0.35;100.00
25658;BME280;13517;59.320;18.042;2024-01-25T00:53:01;99347.66;;;0.40;100.00
25658;BME280;13517;59.320;18.042;2024-01-25T00:55:26;99360.00;;;0.42;100.00
25658;BME280;13517;59.320;18.042;2024-01-25T00:57:52;99328.88;;;0.24;100.00
25658;BME280;13517;59.320;18.042;2024-01-25T01:00:18;99379.31;;;0.45;100.00
25658;BME280;13517;59.320;18.042;2024-01-25T01:02:45;99384.56;;;0.47;100.00
25658;BME280;13517;59.320;18.042;2024-01-25T01:05:11;99400.53;;;0.47;100.00
25658;BME280;13517;59.320;18.042;2024-01-25T01:07:38;99411.16;;;0.47;100.00
25658;BME280;13517;59.320;18.042;2024-01-25T01:10:06;99380.38;;;0.22;100.00
25658;BME280;13517;59.320;18.042;2024-01-25T01:12:32;99345.22;;;-0.06;100.00
25658;BME280;13517;59.320;18.042;2024-01-25T01:14:57;99314.63;;;-0.15;100.00
25658;BME280;13517;59.320;18.042;2024-01-25T01:17:23;99436.16;;;0.43;100.00
25658;BME280;13517;59.320;18.042;2024-01-25T01:19:48;99383.06;;;-0.01;100.00
25658;BME280;13517;59.320;18.042;2024-01-25T01:22:14;99436.88;;;0.46;100.00
25658;BME280;13517;59.320;18.042;2024-01-25T01:24:39;99425.53;;;0.22;100.00
25658;BME280;13517;59.320;18.042;2024-01-25T01:27:05;99336.53;;;-0.30;100.00
25658;BME280;13517;59.320;18.042;2024-01-25T01:29:30;99434.28;;;0.24;100.00
25658;BME280;13517;59.320;18.042;2024-01-25T01:31:56;99419.78;;;0.10;100.00
25658;BME280;13517;59.320;18.042;2024-01-25T01:34:21;99370.09;;;-0.29;100.00
25658;BME280;13517;59.320;18.042;2024-01-25T01:36:46;99503.22;;;0.48;100.00
25658;BME280;13517;59.320;18.042;2024-01-25T01:39:12;99486.72;;;0.39;100.00
25658;BME280;13517;59.320;18.042;2024-01-25T01:41:37;99494.72;;;0.39;100.00
25658;BME280;13517;59.320;18.042;2024-01-25T01:44:03;99406.81;;;-0.18;100.00
25658;BME280;13517;59.320;18.042;2024-01-25T01:46:32;99521.81;;;0.48;100.00
25658;BME280;13517;59.320;18.042;2024-01-25T01:48:59;99460.56;;;0.09;100.00
25658;BME280;13517;59.320;18.042;2024-01-25T01:51:25;99463.25;;;0.08;100.00
25658;BME280;13517;59.320;18.042;2024-01-25T01:53:51;99498.81;;;0.26;100.00
25658;BME280;13517;59.320;18.042;2024-01-25T01:56:17;99534.81;;;0.33;100.00
25658;BME280;13517;59.320;18.042;2024-01-25T01:58:43;99512.34;;;0.20;100.00
25658;BME280;13517;59.320;18.042;2024-01-25T02:01:12;99541.84;;;0.34;100.00
25658;BME280;13517;59.320;18.042;2024-01-25T02:03:38;99555.75;;;0.41;100.00
25658;BME280;13517;59.320;18.042;2024-01-25T02:06:03;99516.81;;;0.19;100.00
25658;BME280;13517;59.320;18.042;2024-01-25T02:08:29;99560.00;;;0.45;100.00
25658;BME280;13517;59.320;18.042;2024-01-25T02:10:55;99463.28;;;-0.15;100.00
25658;BME280;13517;59.320;18.042;2024-01-25T02:13:21;99531.19;;;0.13;100.00
25658;BME280;13517;59.320;18.042;2024-01-25T02:15:47;99564.66;;;0.40;100.00
25658;BME280;13517;59.320;18.042;2024-01-25T02:18:12;99571.16;;;0.33;100.00
25658;BME280;13517;59.320;18.042;2024-01-25T02:20:38;99594.97;;;0.34;100.00
25658;BME280;13517;59.320;18.042;2024-01-25T02:23:03;99506.47;;;-0.11;100.00
25658;BME280;13517;59.320;18.042;2024-01-25T02:25:29;99606.28;;;0.39;100.00
25658;BME280;13517;59.320;18.042;2024-01-25T02:27:54;99631.00;;;0.42;100.00
25658;BME280;13517;59.320;18.042;2024-01-25T02:30:20;99629.28;;;0.40;100.00
25658;BME280;13517;59.320;18.042;2024-01-25T02:32:45;99625.94;;;0.35;100.00
25658;BME280;13517;59.320;18.042;2024-01-25T02:35:11;99626.53;;;0.20;100.00
25658;BME280;13517;59.320;18.042;2024-01-25T02:37:36;99555.56;;;-0.21;100.00
25658;BME280;13517;59.320;18.042;2024-01-25T02:40:01;99550.50;;;-0.28;100.00
25658;BME280;13517;59.320;18.042;2024-01-25T02:42:28;99627.91;;;0.08;100.00
25658;BME280;13517;59.320;18.042;2024-01-25T02:44:54;99550.53;;;-0.29;100.00
25658;BME280;13517;59.320;18.042;2024-01-25T02:47:19;99578.66;;;-0.23;100.00
25658;BME280;13517;59.320;18.042;2024-01-25T02:49:44;99646.31;;;0.12;100.00
25658;BME280;13517;59.320;18.042;2024-01-25T02:52:10;99622.78;;;0.03;100.00
25658;BME280;13517;59.320;18.042;2024-01-25T02:54:35;99571.69;;;-0.26;100.00
25658;BME280;13517;59.320;18.042;2024-01-25T02:57:04;99641.50;;;0.00;100.00
25658;BME280;13517;59.320;18.042;2024-01-25T02:59:29;99696.47;;;0.20;100.00
25658;BME280;13517;59.320;18.042;2024-01-25T03:01:55;99702.91;;;0.15;100.00
25658;BME280;13517;59.320;18.042;2024-01-25T03:04:20;99698.25;;;0.20;100.00
25658;BME280;13517;59.320;18.042;2024-01-25T03:06:46;99685.75;;;-0.01;100.00
25658;BME280;13517;59.320;18.042;2024-01-25T03:09:11;99679.00;;;-0.09;100.00
25658;BME280;13517;59.320;18.042;2024-01-25T03:11:36;99737.88;;;0.26;100.00
25658;BME280;13517;59.320;18.042;2024-01-25T03:14:02;99609.41;;;-0.42;100.00
25658;BME280;13517;59.320;18.042;2024-01-25T03:16:27;99651.41;;;-0.29;100.00
25658;BME280;13517;59.320;18.042;2024-01-25T03:18:53;99671.44;;;-0.20;100.00
25658;BME280;13517;59.320;18.042;2024-01-25T03:21:18;99758.41;;;0.21;100.00
25658;BME280;13517;59.320;18.042;2024-01-25T03:23:44;99805.41;;;0.19;100.00
25658;BME280;13517;59.320;18.042;2024-01-25T03:26:09;99755.88;;;0.18;100.00
25658;BME280;13517;59.320;18.042;2024-01-25T03:28:35;99669.81;;;-0.50;100.00
25658;BME280;13517;59.320;18.042;2024-01-25T03:31:04;99781.66;;;0.16;100.00
25658;BME280;13517;59.320;18.042;2024-01-25T03:33:30;99836.53;;;0.15;100.00
25658;BME280;13517;59.320;18.042;2024-01-25T03:36:01;99766.53;;;-0.08;100.00
25658;BME280;13517;59.320;18.042;2024-01-25T03:38:27;99788.09;;;0.08;100.00
25658;BME280;13517;59.320;18.042;2024-01-25T03:40:52;99727.41;;;-0.52;100.00
25658;BME280;13517;59.320;18.042;2024-01-25T03:43:18;99754.22;;;-0.34;100.00
25658;BME280;13517;59.320;18.042;2024-01-25T03:45:43;99691.78;;;-0.70;100.00
25658;BME280;13517;59.320;18.042;2024-01-25T03:48:09;99793.81;;;-0.28;100.00
25658;BME280;13517;59.320;18.042;2024-01-25T03:50:34;99762.44;;;-0.42;100.00
25658;BME280;13517;59.320;18.042;2024-01-25T03:52:59;99796.47;;;-0.28;100.00
25658;BME280;13517;59.320;18.042;2024-01-25T03:55:25;99854.31;;;-0.12;100.00
25658;BME280;13517;59.320;18.042;2024-01-25T03:57:50;99845.44;;;-0.11;100.00
25658;BME280;13517;59.320;18.042;2024-01-25T04:00:16;99821.63;;;-0.40;100.00
25658;BME280;13517;59.320;18.042;2024-01-25T04:02:41;99850.69;;;-0.35;100.00
25658;BME280;13517;59.320;18.042;2024-01-25T04:05:07;99864.03;;;-0.38;100.00
25658;BME280;13517;59.320;18.042;2024-01-25T04:07:32;99816.22;;;-0.64;100.00
25658;BME280;13517;59.320;18.042;2024-01-25T04:09:58;99819.97;;;-0.70;100.00
25658;BME280;13517;59.320;18.042;2024-01-25T04:12:23;99843.72;;;-0.66;100.00
25658;BME280;13517;59.320;18.042;2024-01-25T04:14:50;99871.44;;;-0.48;100.00
25658;BME280;13517;59.320;18.042;2024-01-25T04:17:15;99838.81;;;-0.79;100.00
25658;BME280;13517;59.320;18.042;2024-01-25T04:19:41;99845.75;;;-0.75;100.00
25658;BME280;13517;59.320;18.042;2024-01-25T04:22:06;99838.22;;;-0.89;100.00
25658;BME280;13517;59.320;18.042;2024-01-25T04:24:31;99909.16;;;-0.38;100.00
25658;BME280;13517;59.320;18.042;2024-01-25T04:26:57;99937.78;;;-0.21;100.00
25658;BME280;13517;59.320;18.042;2024-01-25T04:29:22;99873.66;;;-0.63;100.00
25658;BME280;13517;59.320;18.042;2024-01-25T04:31:47;99894.38;;;-0.47;100.00
25658;BME280;13517;59.320;18.042;2024-01-25T04:34:14;99901.72;;;-0.56;100.00
25658;BME280;13517;59.320;18.042;2024-01-25T04:36:40;99951.06;;;-0.21;100.00
25658;BME280;13517;59.320;18.042;2024-01-25T04:39:05;99892.91;;;-0.56;100.00
25658;BME280;13517;59.320;18.042;2024-01-25T04:41:31;99931.69;;;-0.52;100.00
25658;BME280;13517;59.320;18.042;2024-01-25T04:43:56;99946.41;;;-0.42;100.00
25658;BME280;13517;59.320;18.042;2024-01-25T04:46:22;100012.16;;;-0.23;100.00
25658;BME280;13517;59.320;18.042;2024-01-25T04:48:47;99962.38;;;-0.43;100.00
25658;BME280;13517;59.320;18.042;2024-01-25T04:51:16;100006.97;;;-0.26;100.00
25658;BME280;13517;59.320;18.042;2024-01-25T04:53:42;99902.56;;;-0.82;100.00
25658;BME280;13517;59.320;18.042;2024-01-25T04:56:08;99991.53;;;-0.42;100.00
25658;BME280;13517;59.320;18.042;2024-01-25T04:58:33;99999.41;;;-0.40;100.00
25658;BME280;13517;59.320;18.042;2024-01-25T05:00:58;99945.47;;;-0.69;100.00
25658;BME280;13517;59.320;18.042;2024-01-25T05:03:25;99977.53;;;-0.47;100.00
25658;BME280;13517;59.320;18.042;2024-01-25T05:05:50;99984.84;;;-0.55;100.00
25658;BME280;13517;59.320;18.042;2024-01-25T05:08:15;100044.88;;;-0.22;100.00
25658;BME280;13517;59.320;18.042;2024-01-25T05:10:41;99977.22;;;-0.66;100.00
25658;BME280;13517;59.320;18.042;2024-01-25T05:13:07;99921.25;;;-0.87;100.00
25658;BME280;13517;59.320;18.042;2024-01-25T05:15:32;100021.41;;;-0.36;100.00
25658;BME280;13517;59.320;18.042;2024-01-25T05:17:58;99994.53;;;-0.54;100.00
25658;BME280;13517;59.320;18.042;2024-01-25T05:20:23;99960.78;;;-0.79;100.00
25658;BME280;13517;59.320;18.042;2024-01-25T05:22:48;100079.25;;;-0.18;100.00
25658;BME280;13517;59.320;18.042;2024-01-25T05:25:14;100036.66;;;-0.43;100.00
25658;BME280;13517;59.320;18.042;2024-01-25T05:27:39;100086.75;;;-0.32;100.00
25658;BME280;13517;59.320;18.042;2024-01-25T05:30:06;100030.28;;;-0.66;100.00
25658;BME280;13517;59.320;18.042;2024-01-25T05:32:31;100026.06;;;-0.73;100.00
25658;BME280;13517;59.320;18.042;2024-01-25T05:34:57;100083.19;;;-0.31;100.00
25658;BME280;13517;59.320;18.042;2024-01-25T05:37:22;100054.16;;;-0.66;100.00
25658;BME280;13517;59.320;18.042;2024-01-25T05:39:48;100000.56;;;-0.79;100.00
25658;BME280;13517;59.320;18.042;2024-01-25T05:42:13;100079.63;;;-0.60;100.00
25658;BME280;13517;59.320;18.042;2024-01-25T05:44:38;100101.31;;;-0.46;100.00
25658;BME280;13517;59.320;18.042;2024-01-25T05:47:04;100085.22;;;-0.71;100.00
25658;BME280;13517;59.320;18.042;2024-01-25T05:49:29;100038.97;;;-0.92;100.00
25658;BME280;13517;59.320;18.042;2024-01-25T05:51:54;100147.00;;;-0.34;100.00
25658;BME280;13517;59.320;18.042;2024-01-25T05:54:20;100053.84;;;-0.87;100.00
25658;BME280;13517;59.320;18.042;2024-01-25T05:56:45;100086.53;;;-0.86;100.00
25658;BME280;13517;59.320;18.042;2024-01-25T05:59:11;100117.69;;;-0.61;100.00
25658;BME280;13517;59.320;18.042;2024-01-25T06:01:36;100123.06;;;-0.64;100.00
25658;BME280;13517;59.320;18.042;2024-01-25T06:04:02;100050.25;;;-1.17;100.00
25658;BME280;13517;59.320;18.042;2024-01-25T06:06:27;100154.66;;;-0.55;100.00
25658;BME280;13517;59.320;18.042;2024-01-25T06:08:52;100160.38;;;-0.71;100.00
25658;BME280;13517;59.320;18.042;2024-01-25T06:11:18;100134.03;;;-0.77;100.00
25658;BME280;13517;59.320;18.042;2024-01-25T06:13:43;100174.97;;;-0.54;100.00
25658;BME280;13517;59.320;18.042;2024-01-25T06:16:09;100207.75;;;-0.57;100.00
25658;BME280;13517;59.320;18.042;2024-01-25T06:18:35;100118.69;;;-0.99;100.00
25658;BME280;13517;59.320;18.042;2024-01-25T06:21:00;100162.84;;;-0.98;100.00
25658;BME280;13517;59.320;18.042;2024-01-25T06:23:26;100196.59;;;-0.70;100.00
25658;BME280;13517;59.320;18.042;2024-01-25T06:25:51;100227.25;;;-0.59;100.00
25658;BME280;13517;59.320;18.042;2024-01-25T06:28:16;100237.81;;;-0.56;100.00
25658;BME280;13517;59.320;18.042;2024-01-25T06:30:43;100092.06;;;-1.29;100.00
25658;BME280;13517;59.320;18.042;2024-01-25T06:33:08;100224.25;;;-0.80;100.00
25658;BME280;13517;59.320;18.042;2024-01-25T06:35:33;100208.19;;;-0.74;100.00
25658;BME280;13517;59.320;18.042;2024-01-25T06:37:59;100288.94;;;-0.49;100.00
25658;BME280;13517;59.320;18.042;2024-01-25T06:40:24;100276.53;;;-0.49;100.00
25658;BME280;13517;59.320;18.042;2024-01-25T06:42:50;100154.38;;;-1.12;100.00
25658;BME280;13517;59.320;18.042;2024-01-25T06:45:16;100254.88;;;-0.66;100.00
25658;BME280;13517;59.320;18.042;2024-01-25T06:47:41;100198.38;;;-1.05;100.00
25658;BME280;13517;59.320;18.042;2024-01-25T06:50:07;100216.72;;;-0.97;100.00
25658;BME280;13517;59.320;18.042;2024-01-25T06:52:33;100231.97;;;-1.05;100.00
25658;BME280;13517;59.320;18.042;2024-01-25T06:54:58;100144.78;;;-1.53;100.00
25658;BME280;13517;59.320;18.042;2024-01-25T06:57:24;100287.63;;;-0.67;100.00
25658;BME280;13517;59.320;18.042;2024-01-25T06:59:49;100260.88;;;-0.94;100.00
25658;BME280;13517;59.320;18.042;2024-01-25T07:02:14;100270.81;;;-1.04;100.00
25658;BME280;13517;59.320;18.042;2024-01-25T07:04:40;100299.44;;;-0.81;100.00
25658;BME280;13517;59.320;18.042;2024-01-25T07:07:06;100234.38;;;-1.32;100.00
25658;BME280;13517;59.320;18.042;2024-01-25T07:09:31;100285.81;;;-1.03;100.00
25658;BME280;13517;59.320;18.042;2024-01-25T07:11:57;100262.66;;;-1.33;100.00
25658;BME280;13517;59.320;18.042;2024-01-25T07:14:22;100362.03;;;-0.74;100.00
25658;BME280;13517;59.320;18.042;2024-01-25T07:16:48;100361.97;;;-0.71;100.00
25658;BME280;13517;59.320;18.042;2024-01-25T07:19:13;100368.13;;;-0.69;100.00
25658;BME280;13517;59.320;18.042;2024-01-25T07:21:39;100327.94;;;-0.89;100.00
25658;BME280;13517;59.320;18.042;2024-01-25T07:24:05;100348.50;;;-1.01;100.00
25658;BME280;13517;59.320;18.042;2024-01-25T07:26:31;100403.53;;;-0.71;100.00
25658;BME280;13517;59.320;18.042;2024-01-25T07:28:56;100385.09;;;-0.76;100.00
25658;BME280;13517;59.320;18.042;2024-01-25T07:31:28;100423.84;;;-0.70;100.00
25658;BME280;13517;59.320;18.042;2024-01-25T07:33:53;100355.00;;;-1.14;100.00
25658;BME280;13517;59.320;18.042;2024-01-25T07:36:20;100326.25;;;-1.33;100.00
25658;BME280;13517;59.320;18.042;2024-01-25T07:38:45;100335.25;;;-1.40;100.00
25658;BME280;13517;59.320;18.042;2024-01-25T07:41:15;100477.97;;;-0.79;100.00
25658;BME280;13517;59.320;18.042;2024-01-25T07:43:41;100462.91;;;-0.77;100.00
25658;BME280;13517;59.320;18.042;2024-01-25T07:46:06;100383.63;;;-1.30;100.00
25658;BME280;13517;59.320;18.042;2024-01-25T07:48:32;100450.56;;;-0.78;100.00
25658;BME280;13517;59.320;18.042;2024-01-25T07:50:58;100437.50;;;-0.89;100.00
25658;BME280;13517;59.320;18.042;2024-01-25T07:53:23;100460.16;;;-0.72;100.00
25658;BME280;13517;59.320;18.042;2024-01-25T07:55:49;100392.19;;;-1.17;100.00
25658;BME280;13517;59.320;18.042;2024-01-25T07:58:15;100412.34;;;-1.10;100.00
25658;BME280;13517;59.320;18.042;2024-01-25T08:00:41;100472.97;;;-0.93;100.00
25658;BME280;13517;59.320;18.042;2024-01-25T08:03:07;100466.75;;;-0.90;100.00
25658;BME280;13517;59.320;18.042;2024-01-25T08:05:33;100473.88;;;-0.94;100.00
25658;BME280;13517;59.320;18.042;2024-01-25T08:07:58;100443.44;;;-1.17;100.00
25658;BME280;13517;59.320;18.042;2024-01-25T08:10:23;100452.13;;;-1.12;100.00
25658;BME280;13517;59.320;18.042;2024-01-25T08:12:49;100459.25;;;-1.12;100.00
25658;BME280;13517;59.320;18.042;2024-01-25T08:15:14;100490.34;;;-1.20;100.00
25658;BME280;13517;59.320;18.042;2024-01-25T08:17:40;100337.97;;;-1.87;100.00
25658;BME280;13517;59.320;18.042;2024-01-25T08:20:06;100500.56;;;-1.03;100.00
25658;BME280;13517;59.320;18.042;2024-01-25T08:22:32;100460.50;;;-1.32;100.00
25658;BME280;13517;59.320;18.042;2024-01-25T08:24:57;100491.16;;;-1.18;100.00
25658;BME280;13517;59.320;18.042;2024-01-25T08:27:24;100545.47;;;-0.94;100.00
25658;BME280;13517;59.320;18.042;2024-01-25T08:29:50;100584.00;;;-0.74;100.00
25658;BME280;13517;59.320;18.042;2024-01-25T08:32:15;100568.28;;;-0.85;100.00
25658;BME280;13517;59.320;18.042;2024-01-25T08:34:40;100510.66;;;-1.23;100.00
25658;BME280;13517;59.320;18.042;2024-01-25T08:37:07;100594.53;;;-0.71;100.00
25658;BME280;13517;59.320;18.042;2024-01-25T08:39:32;100565.81;;;-0.94;100.00
25658;BME280;13517;59.320;18.042;2024-01-25T08:41:58;100477.53;;;-1.44;100.00
25658;BME280;13517;59.320;18.042;2024-01-25T08:44:27;100613.09;;;-0.71;100.00
25658;BME280;13517;59.320;18.042;2024-01-25T08:46:52;100611.38;;;-0.74;100.00
25658;BME280;13517;59.320;18.042;2024-01-25T08:49:17;100582.72;;;-1.00;100.00
25658;BME280;13517;59.320;18.042;2024-01-25T08:51:43;100530.25;;;-1.31;100.00
25658;BME280;13517;59.320;18.042;2024-01-25T08:54:08;100635.25;;;-0.72;100.00
25658;BME280;13517;59.320;18.042;2024-01-25T08:56:34;100609.88;;;-0.87;100.00
25658;BME280;13517;59.320;18.042;2024-01-25T08:58:59;100609.25;;;-1.00;100.00
25658;BME280;13517;59.320;18.042;2024-01-25T09:01:25;100595.88;;;-0.96;100.00
25658;BME280;13517;59.320;18.042;2024-01-25T09:03:50;100524.31;;;-1.44;100.00
25658;BME280;13517;59.320;18.042;2024-01-25T09:06:16;100608.56;;;-1.12;100.00
25658;BME280;13517;59.320;18.042;2024-01-25T09:08:42;100643.41;;;-0.83;100.00
25658;BME280;13517;59.320;18.042;2024-01-25T09:11:07;100657.59;;;-0.87;100.00
25658;BME280;13517;59.320;18.042;2024-01-25T09:13:33;100569.28;;;-1.38;100.00
25658;BME280;13517;59.320;18.042;2024-01-25T09:15:58;100637.47;;;-0.98;100.00
25658;BME280;13517;59.320;18.042;2024-01-25T09:18:24;100602.50;;;-1.18;100.00
25658;BME280;13517;59.320;18.042;2024-01-25T09:20:50;100629.63;;;-1.04;100.00
25658;BME280;13517;59.320;18.042;2024-01-25T09:23:15;100641.00;;;-0.97;100.00
25658;BME280;13517;59.320;18.042;2024-01-25T09:25:44;100636.06;;;-1.17;100.00
25658;BME280;13517;59.320;18.042;2024-01-25T09:28:10;100666.47;;;-0.88;100.00
25658;BME280;13517;59.320;18.042;2024-01-25T09:30:38;100630.97;;;-1.30;100.00
25658;BME280;13517;59.320;18.042;2024-01-25T09:33:04;100608.13;;;-1.39;100.00
25658;BME280;13517;59.320;18.042;2024-01-25T09:35:29;100623.97;;;-1.34;100.00
25658;BME280;13517;59.320;18.042;2024-01-25T09:37:55;100639.84;;;-1.32;100.00
25658;BME280;13517;59.320;18.042;2024-01-25T09:40:20;100699.22;;;-0.91;100.00
25658;BME280;13517;59.320;18.042;2024-01-25T09:42:48;100534.78;;;-1.88;100.00
25658;BME280;13517;59.320;18.042;2024-01-25T09:45:18;100698.47;;;-0.98;100.00
25658;BME280;13517;59.320;18.042;2024-01-25T09:47:47;100622.28;;;-1.40;100.00
25658;BME280;13517;59.320;18.042;2024-01-25T09:50:13;100695.91;;;-1.04;100.00
25658;BME280;13517;59.320;18.042;2024-01-25T09:52:39;100744.09;;;-0.77;100.00
25658;BME280;13517;59.320;18.042;2024-01-25T09:55:11;100689.72;;;-1.03;100.00
25658;BME280;13517;59.320;18.042;2024-01-25T09:57:41;100685.41;;;-1.10;100.00
25658;BME280;13517;59.320;18.042;2024-01-25T10:00:09;100707.28;;;-0.97;100.00
25658;BME280;13517;59.320;18.042;2024-01-25T10:02:37;100729.13;;;-0.83;100.00
25658;BME280;13517;59.320;18.042;2024-01-25T10:05:03;100702.13;;;-1.05;100.00
25658;BME280;13517;59.320;18.042;2024-01-25T10:07:40;100689.91;;;-1.15;100.00
25658;BME280;13517;59.320;18.042;2024-01-25T10:10:06;100761.88;;;-0.85;100.00
25658;BME280;13517;59.320;18.042;2024-01-25T10:12:32;100690.09;;;-1.28;100.00
25658;BME280;13517;59.320;18.042;2024-01-25T10:14:57;100725.25;;;-1.13;100.00
25658;BME280;13517;59.320;18.042;2024-01-25T10:17:23;100762.06;;;-0.96;100.00
25658;BME280;13517;59.320;18.042;2024-01-25T10:19:49;100690.34;;;-1.43;100.00
25658;BME280;13517;59.320;18.042;2024-01-25T10:22:14;100697.28;;;-1.33;100.00
25658;BME280;13517;59.320;18.042;2024-01-25T10:24:40;100804.28;;;-0.80;100.00
25658;BME280;13517;59.320;18.042;2024-01-25T10:27:07;100768.38;;;-1.03;100.00
25658;BME280;13517;59.320;18.042;2024-01-25T10:29:36;100725.63;;;-1.40;100.00
25658;BME280;13517;59.320;18.042;2024-01-25T10:32:04;100778.16;;;-1.07;100.00
25658;BME280;13517;59.320;18.042;2024-01-25T10:34:31;100764.31;;;-1.28;100.00
25658;BME280;13517;59.320;18.042;2024-01-25T10:36:57;100780.78;;;-1.05;100.00
25658;BME280;13517;59.320;18.042;2024-01-25T10:39:24;100785.16;;;-1.03;100.00
25658;BME280;13517;59.320;18.042;2024-01-25T10:41:49;100723.94;;;-1.44;100.00
25658;BME280;13517;59.320;18.042;2024-01-25T10:44:16;100789.63;;;-1.05;100.00
25658;BME280;13517;59.320;18.042;2024-01-25T10:46:47;100748.47;;;-1.29;100.00
25658;BME280;13517;59.320;18.042;2024-01-25T10:49:12;100850.28;;;-0.83;100.00
25658;BME280;13517;59.320;18.042;2024-01-25T10:51:40;100756.50;;;-1.34;100.00
25658;BME280;13517;59.320;18.042;2024-01-25T10:54:07;100760.25;;;-1.51;100.00
25658;BME280;13517;59.320;18.042;2024-01-25T10:56:34;100859.25;;;-0.90;100.00
25658;BME280;13517;59.320;18.042;2024-01-25T10:59:00;100817.06;;;-1.06;100.00
25658;BME280;13517;59.320;18.042;2024-01-25T11:01:27;100801.53;;;-1.34;100.00
25658;BME280;13517;59.320;18.042;2024-01-25T11:03:53;100832.91;;;-1.03;100.00
25658;BME280;13517;59.320;18.042;2024-01-25T11:06:21;100787.50;;;-1.42;100.00
25658;BME280;13517;59.320;18.042;2024-01-25T11:08:47;100837.38;;;-1.08;100.00
25658;BME280;13517;59.320;18.042;2024-01-25T11:11:14;100819.97;;;-1.28;100.00
25658;BME280;13517;59.320;18.042;2024-01-25T11:13:41;100873.34;;;-0.90;100.00
25658;BME280;13517;59.320;18.042;2024-01-25T11:16:18;100826.09;;;-1.21;100.00
25658;BME280;13517;59.320;18.042;2024-01-25T11:18:51;100863.13;;;-1.16;100.00
25658;BME280;13517;59.320;18.042;2024-01-25T11:21:45;100866.53;;;-1.05;100.00
25658;BME280;13517;59.320;18.042;2024-01-25T11:24:21;100859.59;;;-1.15;100.00
25658;BME280;13517;59.320;18.042;2024-01-25T11:26:47;100885.13;;;-1.08;100.00
25658;BME280;13517;59.320;18.042;2024-01-25T11:29:14;100900.03;;;-1.01;100.00
25658;BME280;13517;59.320;18.042;2024-01-25T11:31:46;100812.59;;;-1.71;100.00
25658;BME280;13517;59.320;18.042;2024-01-25T11:34:12;100897.56;;;-1.13;100.00
25658;BME280;13517;59.320;18.042;2024-01-25T11:36:38;100871.47;;;-1.46;100.00
25658;BME280;13517;59.320;18.042;2024-01-25T11:39:03;100826.75;;;-1.72;100.00
25658;BME280;13517;59.320;18.042;2024-01-25T11:41:31;100893.28;;;-1.25;100.00
25658;BME280;13517;59.320;18.042;2024-01-25T11:43:56;100883.78;;;-1.42;100.00
25658;BME280;13517;59.320;18.042;2024-01-25T11:46:22;100874.94;;;-1.41;100.00
25658;BME280;13517;59.320;18.042;2024-01-25T11:48:48;100903.94;;;-1.30;100.00
25658;BME280;13517;59.320;18.042;2024-01-25T11:51:13;100942.59;;;-1.10;100.00
25658;BME280;13517;59.320;18.042;2024-01-25T11:53:40;100873.31;;;-1.51;100.00
25658;BME280;13517;59.320;18.042;2024-01-25T11:56:07;100872.50;;;-1.58;100.00
25658;BME280;13517;59.320;18.042;2024-01-25T11:58:34;100924.31;;;-1.33;100.00
25658;BME280;13517;59.320;18.042;2024-01-25T12:01:01;100866.47;;;-1.69;100.00
25658;BME280;13517;59.320;18.042;2024-01-25T12:03:28;100884.03;;;-1.62;100.00
25658;BME280;13517;59.320;18.042;2024-01-25T12:05:54;100926.38;;;-1.57;100.00
25658;BME280;13517;59.320;18.042;2024-01-25T12:08:19;100924.50;;;-1.47;100.00
25658;BME280;13517;59.320;18.042;2024-01-25T12:10:45;100912.19;;;-1.53;100.00
25658;BME280;13517;59.320;18.042;2024-01-25T12:13:10;100892.84;;;-1.61;100.00
25658;BME280;13517;59.320;18.042;2024-01-25T12:15:35;100930.59;;;-1.39;100.00
25658;BME280;13517;59.320;18.042;2024-01-25T12:18:01;100935.03;;;-1.41;100.00
25658;BME280;13517;59.320;18.042;2024-01-25T12:20:28;101030.09;;;-1.08;100.00
25658;BME280;13517;59.320;18.042;2024-01-25T12:22:54;101016.00;;;-1.12;100.00
25658;BME280;13517;59.320;18.042;2024-01-25T12:25:19;100945.75;;;-1.52;100.00
25658;BME280;13517;59.320;18.042;2024-01-25T12:27:44;100993.22;;;-1.30;100.00
25658;BME280;13517;59.320;18.042;2024-01-25T12:30:14;100994.97;;;-1.31;100.00